createdAt,value
2023-05-19T00:00:31.964Z,14.75
2023-05-19T00:03:02.172Z,14.81
2023-05-19T00:05:35.387Z,14.99
2023-05-19T00:08:11.409Z,15.05
2023-05-19T00:10:41.890Z,15.08
2023-05-19T00:13:12.481Z,15.36
2023-05-19T00:15:42.870Z,15.40
2023-05-19T00:18:15.073Z,15.40
2023-05-19T00:20:45.404Z,15.44
2023-05-19T00:23:15.817Z,15.59
2023-05-19T00:25:45.737Z,15.67
2023-05-19T00:28:16.376Z,15.52
2023-05-19T00:30:46.512Z,15.07
2023-05-19T00:33:17.123Z,14.80
2023-05-19T00:35:47.386Z,14.62
2023-05-19T00:38:17.868Z,14.51
2023-05-19T00:40:50.951Z,14.49
2023-05-19T00:43:21.484Z,14.48
2023-05-19T00:45:52.060Z,14.36
2023-05-19T00:48:23.019Z,14.33
2023-05-19T00:51:05.249Z,14.32
2023-05-19T00:53:37.013Z,14.32
2023-05-19T00:56:07.239Z,14.30
2023-05-19T00:58:38.358Z,14.30
2023-05-19T01:01:15.544Z,14.21
2023-05-19T01:03:46.414Z,14.17
2023-05-19T01:06:20.441Z,14.09
2023-05-19T01:08:59.303Z,14.02
2023-05-19T01:11:32.010Z,13.94
2023-05-19T01:14:02.151Z,13.92
2023-05-19T01:17:06.569Z,14.01
2023-05-19T01:19:51.915Z,13.90
2023-05-19T01:22:50.816Z,13.72
2023-05-19T01:26:02.029Z,13.60
2023-05-19T01:28:54.826Z,13.61
2023-05-19T01:31:29.866Z,13.46
2023-05-19T01:34:01.476Z,13.37
2023-05-19T01:36:33.301Z,13.45
2023-05-19T01:39:04.472Z,13.35
2023-05-19T01:41:38.518Z,13.26
2023-05-19T01:44:12.293Z,13.16
2023-05-19T01:46:46.101Z,13.34
2023-05-19T01:49:16.773Z,13.48
2023-05-19T01:51:50.577Z,13.70
2023-05-19T01:54:21.176Z,13.70
2023-05-19T01:57:05.824Z,13.74
2023-05-19T01:59:45.565Z,13.70
2023-05-19T02:02:57.298Z,13.71
2023-05-19T02:06:00.460Z,13.73
2023-05-19T02:08:52.133Z,13.81
2023-05-19T02:11:52.715Z,13.87
2023-05-19T02:14:32.563Z,13.85
2023-05-19T02:17:03.737Z,13.92
2023-05-19T02:19:37.626Z,13.86
2023-05-19T02:22:08.731Z,13.91
2023-05-19T02:24:38.918Z,13.85
2023-05-19T02:27:09.312Z,13.58
2023-05-19T02:29:39.257Z,12.90
2023-05-19T02:32:10.108Z,12.80
2023-05-19T02:34:40.152Z,12.76
2023-05-19T02:37:10.512Z,12.77
2023-05-19T02:39:41.462Z,12.98
2023-05-19T02:42:12.009Z,13.09
2023-05-19T02:44:42.355Z,13.11
2023-05-19T02:47:12.438Z,13.09
2023-05-19T02:49:44.229Z,13.12
2023-05-19T02:52:14.274Z,13.16
2023-05-19T02:54:44.448Z,13.22
2023-05-19T02:57:14.797Z,13.17
2023-05-19T02:59:44.880Z,13.05
2023-05-19T03:02:15.276Z,12.99
2023-05-19T03:04:45.127Z,12.95
2023-05-19T03:07:16.756Z,12.84
2023-05-19T03:09:46.736Z,12.78
2023-05-19T03:12:17.186Z,12.87
2023-05-19T03:14:47.488Z,12.93
2023-05-19T03:17:17.915Z,13.19
2023-05-19T03:19:47.997Z,13.03
2023-05-19T03:22:19.859Z,12.95
2023-05-19T03:24:52.202Z,12.98
2023-05-19T03:27:23.538Z,12.90
2023-05-19T03:29:54.990Z,12.75
2023-05-19T03:32:26.855Z,12.46
2023-05-19T03:34:56.898Z,12.53
2023-05-19T03:37:28.184Z,12.48
2023-05-19T03:39:58.687Z,12.57
2023-05-19T03:42:29.177Z,12.63
2023-05-19T03:44:59.283Z,12.58
2023-05-19T03:47:29.797Z,12.46
2023-05-19T03:50:25.818Z,12.34
2023-05-19T03:53:02.852Z,12.22
2023-05-19T03:55:41.108Z,12.14
2023-05-19T03:58:11.901Z,12.15
2023-05-19T04:00:42.687Z,12.17
2023-05-19T04:03:13.305Z,12.41
2023-05-19T04:05:43.445Z,12.41
2023-05-19T04:08:14.183Z,12.35
2023-05-19T04:10:45.375Z,12.40
2023-05-19T04:13:17.123Z,12.34
2023-05-19T04:15:47.606Z,12.28
2023-05-19T04:18:17.580Z,12.25
2023-05-19T04:20:47.946Z,12.32
2023-05-19T04:23:18.062Z,12.31
2023-05-19T04:25:49.929Z,12.32
2023-05-19T04:28:20.006Z,12.27
2023-05-19T04:30:51.916Z,12.23
2023-05-19T04:33:22.653Z,12.21
2023-05-19T04:35:53.127Z,12.24
2023-05-19T04:38:23.258Z,12.41
2023-05-19T04:40:54.213Z,12.23
2023-05-19T04:43:24.230Z,12.06
2023-05-19T04:45:54.855Z,11.82
2023-05-19T04:48:25.352Z,11.63
2023-05-19T04:50:55.838Z,11.65
2023-05-19T04:53:26.863Z,11.45
2023-05-19T04:56:02.072Z,11.24
2023-05-19T04:58:34.445Z,11.19
2023-05-19T05:01:05.200Z,11.03
2023-05-19T05:03:35.778Z,11.12
2023-05-19T05:06:06.457Z,11.06
2023-05-19T05:08:36.682Z,11.18
2023-05-19T05:11:07.744Z,11.25
2023-05-19T05:13:38.290Z,11.23
2023-05-19T05:16:09.590Z,11.51
2023-05-19T05:18:41.164Z,11.49
2023-05-19T05:21:13.851Z,11.56
2023-05-19T05:23:44.343Z,11.56
2023-05-19T05:26:25.682Z,11.16
2023-05-19T05:28:58.325Z,11.11
2023-05-19T05:31:30.843Z,10.94
2023-05-19T05:34:01.809Z,11.00
2023-05-19T05:36:36.133Z,11.04
2023-05-19T05:39:06.810Z,11.04
2023-05-19T05:41:38.307Z,11.09
2023-05-19T05:44:14.235Z,11.23
2023-05-19T05:46:47.236Z,11.27
2023-05-19T05:49:17.607Z,11.13
2023-05-19T05:52:05.014Z,11.04
2023-05-19T05:54:41.277Z,11.14
2023-05-19T05:57:12.541Z,11.19
2023-05-19T05:59:43.260Z,11.15
2023-05-19T06:02:14.502Z,11.19
2023-05-19T06:04:45.233Z,11.21
2023-05-19T06:07:15.664Z,11.14
2023-05-19T06:09:47.590Z,11.13
2023-05-19T06:12:18.393Z,11.23
2023-05-19T06:14:56.182Z,11.28
2023-05-19T06:17:45.378Z,11.20
2023-05-19T06:20:15.981Z,11.30
2023-05-19T06:22:46.716Z,11.38
2023-05-19T06:25:19.211Z,11.28
2023-05-19T06:27:50.205Z,11.33
2023-05-19T06:30:20.221Z,11.41
2023-05-19T06:33:10.657Z,10.96
2023-05-19T06:35:40.797Z,11.02
2023-05-19T06:38:11.297Z,11.07
2023-05-19T06:40:41.918Z,10.70
2023-05-19T06:43:12.521Z,10.60
2023-05-19T06:46:05.474Z,10.73
2023-05-19T06:48:36.569Z,10.89
2023-05-19T06:51:07.028Z,11.06
2023-05-19T06:53:37.773Z,11.22
2023-05-19T06:56:11.223Z,11.23
2023-05-19T06:58:42.722Z,11.29
2023-05-19T07:01:13.765Z,11.27
2023-05-19T07:03:49.259Z,11.31
2023-05-19T07:06:19.323Z,11.32
2023-05-19T07:08:49.696Z,11.37
2023-05-19T07:11:21.367Z,11.38
2023-05-19T07:13:52.654Z,11.32
2023-05-19T07:16:28.608Z,11.30
2023-05-19T07:18:59.135Z,11.27
2023-05-19T07:21:29.164Z,11.31
2023-05-19T07:23:59.776Z,11.34
2023-05-19T07:26:31.306Z,11.10
2023-05-19T07:29:01.927Z,10.70
2023-05-19T07:31:32.320Z,10.81
2023-05-19T07:34:02.762Z,10.77
2023-05-19T07:36:32.889Z,10.67
2023-05-19T07:39:03.405Z,10.74
2023-05-19T07:41:34.361Z,10.70
2023-05-19T07:44:08.726Z,10.70
2023-05-19T07:46:39.270Z,10.68
2023-05-19T07:49:09.731Z,10.71
2023-05-19T07:51:39.736Z,10.20
2023-05-19T07:54:10.130Z,9.96
2023-05-19T07:56:40.128Z,9.84
2023-05-19T07:59:10.753Z,9.70
2023-05-19T08:01:40.805Z,9.79
2023-05-19T08:04:13.751Z,9.86
2023-05-19T08:06:45.475Z,9.84
2023-05-19T08:09:15.809Z,9.92
2023-05-19T08:11:46.070Z,10.02
2023-05-19T08:14:16.429Z,10.13
2023-05-19T08:16:47.519Z,10.26
2023-05-19T08:19:17.947Z,10.32
2023-05-19T08:21:49.478Z,10.18
2023-05-19T08:24:19.868Z,9.67
2023-05-19T08:26:49.817Z,9.61
2023-05-19T08:29:22.692Z,9.83
2023-05-19T08:31:54.214Z,9.74
2023-05-19T08:34:27.027Z,9.68
2023-05-19T08:37:01.803Z,9.66
2023-05-19T08:39:34.321Z,9.66
2023-05-19T08:42:04.567Z,9.79
2023-05-19T08:44:41.135Z,9.85
2023-05-19T08:47:15.047Z,10.15
2023-05-19T08:49:47.419Z,10.42
2023-05-19T08:52:17.540Z,10.52
2023-05-19T08:55:07.219Z,10.57
2023-05-19T08:57:38.493Z,10.66
2023-05-19T09:00:15.352Z,10.71
2023-05-19T09:02:55.453Z,10.75
2023-05-19T09:05:37.036Z,10.44
2023-05-19T09:08:09.953Z,10.17
2023-05-19T09:10:40.408Z,10.08
2023-05-19T09:13:10.909Z,9.98
2023-05-19T09:15:44.059Z,10.06
2023-05-19T09:18:18.629Z,10.10
2023-05-19T09:20:49.223Z,10.10
2023-05-19T09:23:19.894Z,10.01
2023-05-19T09:25:51.195Z,9.92
2023-05-19T09:28:29.253Z,9.89
2023-05-19T09:31:03.062Z,9.92
2023-05-19T09:33:35.765Z,10.04
2023-05-19T09:36:10.099Z,10.10
2023-05-19T09:38:41.743Z,10.15
2023-05-19T09:41:15.814Z,10.09
2023-05-19T09:43:55.631Z,10.08
2023-05-19T09:46:29.542Z,10.07
2023-05-19T09:49:00.014Z,10.06
2023-05-19T09:51:30.718Z,10.09
2023-05-19T09:54:00.881Z,10.05
2023-05-19T09:56:36.019Z,10.12
2023-05-19T09:59:06.520Z,10.07
2023-05-19T10:01:38.569Z,10.06
2023-05-19T10:04:09.676Z,10.08
2023-05-19T10:06:40.529Z,10.04
2023-05-19T10:09:10.628Z,9.98
2023-05-19T10:11:41.602Z,10.00
2023-05-19T10:14:12.746Z,9.97
2023-05-19T10:16:44.169Z,9.96
2023-05-19T10:19:15.611Z,9.96
2023-05-19T10:21:46.118Z,9.93
2023-05-19T10:24:16.100Z,10.05
2023-05-19T10:26:53.203Z,10.38
2023-05-19T10:29:29.016Z,10.65
2023-05-19T10:32:06.333Z,11.09
2023-05-19T10:35:13.142Z,11.46
2023-05-19T10:37:54.782Z,11.20
2023-05-19T10:40:40.432Z,10.92
2023-05-19T10:43:35.349Z,11.23
2023-05-19T10:46:07.515Z,11.66
2023-05-19T10:48:37.971Z,12.09
2023-05-19T10:51:13.281Z,12.45
2023-05-19T10:53:47.858Z,12.98
2023-05-19T10:56:36.046Z,13.52
2023-05-19T10:59:06.440Z,13.84
2023-05-19T11:01:39.433Z,14.15
2023-05-19T11:04:16.774Z,14.27
2023-05-19T11:06:52.946Z,14.40
2023-05-19T11:09:38.008Z,14.45
2023-05-19T11:12:11.946Z,14.45
2023-05-19T11:14:42.556Z,14.16
2023-05-19T11:17:17.071Z,13.87
2023-05-19T11:19:58.379Z,13.55
2023-05-19T11:22:29.605Z,13.36
2023-05-19T11:25:00.003Z,13.06
2023-05-19T11:27:34.552Z,12.76
2023-05-19T11:30:09.204Z,12.53
2023-05-19T11:32:48.467Z,12.45
2023-05-19T11:35:22.513Z,12.29
2023-05-19T11:37:56.056Z,12.15
2023-05-19T11:40:28.187Z,12.24
2023-05-19T11:42:58.408Z,12.23
2023-05-19T11:45:34.430Z,12.48
2023-05-19T11:48:04.968Z,12.92
2023-05-19T11:50:36.451Z,13.66
2023-05-19T11:53:06.765Z,14.27
2023-05-19T11:55:37.950Z,15.21
2023-05-19T11:58:07.917Z,15.68
2023-05-19T12:00:41.924Z,16.08
2023-05-19T12:03:12.043Z,16.32
2023-05-19T12:05:47.792Z,17.00
2023-05-19T12:08:21.216Z,17.46
2023-05-19T12:10:52.058Z,17.81
2023-05-19T12:13:23.837Z,17.99
2023-05-19T12:15:54.750Z,18.64
2023-05-19T12:18:24.766Z,19.13
2023-05-19T12:20:54.680Z,20.00
2023-05-19T12:23:26.198Z,20.37
2023-05-19T12:25:56.285Z,20.83
2023-05-19T12:28:26.747Z,21.15
2023-05-19T12:30:59.721Z,21.31
2023-05-19T12:33:30.122Z,21.42
2023-05-19T12:36:00.245Z,21.77
2023-05-19T12:38:30.854Z,22.06
2023-05-19T12:41:01.363Z,22.49
2023-05-19T12:43:31.884Z,22.58
2023-05-19T12:46:12.559Z,22.50
2023-05-19T12:48:47.001Z,22.87
2023-05-19T12:51:23.103Z,21.92
2023-05-19T12:53:53.728Z,21.45
2023-05-19T12:56:28.134Z,22.23
2023-05-19T12:58:58.617Z,22.95
2023-05-19T13:01:30.685Z,23.22
2023-05-19T13:04:03.997Z,23.24
2023-05-19T13:06:36.828Z,23.63
2023-05-19T13:09:08.370Z,23.96
2023-05-19T13:11:38.776Z,24.59
2023-05-19T13:14:08.735Z,24.15
2023-05-19T13:16:39.167Z,25.08
2023-05-19T13:19:23.894Z,25.15
2023-05-19T13:21:56.189Z,25.60
2023-05-19T13:24:26.498Z,25.84
2023-05-19T13:26:56.977Z,26.01
2023-05-19T13:29:26.969Z,26.26
2023-05-19T13:31:57.721Z,26.68
2023-05-19T13:34:28.976Z,26.16
2023-05-19T13:36:58.656Z,26.78
2023-05-19T13:39:29.048Z,27.13
2023-05-19T13:42:00.568Z,27.29
2023-05-19T13:44:30.991Z,27.84
2023-05-19T13:47:00.857Z,28.00
2023-05-19T13:49:31.239Z,28.24
2023-05-19T13:52:01.165Z,28.39
2023-05-19T13:54:31.512Z,28.51
2023-05-19T13:57:01.915Z,28.92
2023-05-19T13:59:32.280Z,28.14
2023-05-19T14:02:03.962Z,28.33
2023-05-19T14:04:34.576Z,27.42
2023-05-19T14:07:04.540Z,28.05
2023-05-19T14:09:35.527Z,28.58
2023-05-19T14:12:07.133Z,28.50
2023-05-19T14:14:37.060Z,28.99
2023-05-19T14:17:07.132Z,28.14
2023-05-19T14:19:43.264Z,27.95
2023-05-19T14:22:14.478Z,27.64
2023-05-19T14:24:44.516Z,28.41
2023-05-19T14:27:14.816Z,28.88
2023-05-19T14:29:45.020Z,29.57
2023-05-19T14:32:15.448Z,30.10
2023-05-19T14:34:45.502Z,30.39
2023-05-19T14:37:15.907Z,30.36
2023-05-19T14:39:45.944Z,30.73
2023-05-19T14:42:16.317Z,30.95
2023-05-19T14:44:46.377Z,31.13
2023-05-19T14:47:16.861Z,31.38
2023-05-19T14:49:46.973Z,31.49
2023-05-19T14:52:17.445Z,30.89
2023-05-19T14:54:47.446Z,30.15
2023-05-19T14:57:17.847Z,28.99
2023-05-19T14:59:47.847Z,29.65
2023-05-19T15:02:18.191Z,30.65
2023-05-19T15:04:48.246Z,31.70
2023-05-19T15:07:18.708Z,32.20
2023-05-19T15:09:48.751Z,32.65
2023-05-19T15:12:19.157Z,33.25
2023-05-19T15:14:49.512Z,31.61
2023-05-19T15:17:19.885Z,31.68
2023-05-19T15:19:49.936Z,31.03
2023-05-19T15:22:20.337Z,31.66
2023-05-19T15:24:50.407Z,31.82
2023-05-19T15:27:21.947Z,31.23
2023-05-19T15:29:52.057Z,30.47
2023-05-19T15:32:22.546Z,29.77
2023-05-19T15:34:52.656Z,29.36
2023-05-19T15:37:23.005Z,29.36
2023-05-19T15:39:53.067Z,29.11
2023-05-19T15:42:23.512Z,29.70
2023-05-19T15:44:53.582Z,30.73
2023-05-19T15:47:23.930Z,30.94
2023-05-19T15:49:53.958Z,31.37
2023-05-19T15:52:24.317Z,31.98
2023-05-19T15:54:56.284Z,32.05
2023-05-19T15:57:27.024Z,31.68
2023-05-19T15:59:57.015Z,31.92
2023-05-19T16:02:27.787Z,31.99
2023-05-19T16:04:57.855Z,32.10
2023-05-19T16:07:28.489Z,32.02
2023-05-19T16:09:58.601Z,31.57
2023-05-19T16:12:30.584Z,31.77
2023-05-19T16:15:00.635Z,32.97
2023-05-19T16:17:31.042Z,34.10
2023-05-19T16:20:01.820Z,34.60
2023-05-19T16:22:32.984Z,33.56
2023-05-19T16:25:02.988Z,33.66
2023-05-19T16:27:33.384Z,34.11
2023-05-19T16:30:04.360Z,34.89
2023-05-19T16:32:35.086Z,33.52
2023-05-19T16:35:05.234Z,32.47
2023-05-19T16:37:35.793Z,32.01
2023-05-19T16:40:06.158Z,30.78
2023-05-19T16:42:36.520Z,29.71
2023-05-19T16:45:06.995Z,28.42
2023-05-19T16:47:37.442Z,28.43
2023-05-19T16:50:08.042Z,28.60
2023-05-19T16:52:38.634Z,28.74
2023-05-19T16:55:10.223Z,29.56
2023-05-19T16:57:40.483Z,30.74
2023-05-19T17:00:10.990Z,31.39
2023-05-19T17:02:44.322Z,31.86
2023-05-19T17:05:14.536Z,31.33
2023-05-19T17:07:44.954Z,31.56
2023-05-19T17:10:15.616Z,33.03
2023-05-19T17:12:46.111Z,33.43
2023-05-19T17:15:16.736Z,33.12
2023-05-19T17:17:47.153Z,31.59
2023-05-19T17:20:17.575Z,31.01
2023-05-19T17:22:47.931Z,32.88
2023-05-19T17:25:18.200Z,33.62
2023-05-19T17:27:48.580Z,33.30
2023-05-19T17:30:18.384Z,32.80
2023-05-19T17:32:49.251Z,33.00
2023-05-19T17:35:19.434Z,32.09
2023-05-19T17:37:49.876Z,32.00
2023-05-19T17:40:19.954Z,32.43
2023-05-19T17:42:50.377Z,32.39
2023-05-19T17:45:20.490Z,33.85
2023-05-19T17:47:50.837Z,32.56
2023-05-19T17:50:20.835Z,33.00
2023-05-19T17:52:51.425Z,33.52
2023-05-19T17:55:22.071Z,32.05
2023-05-19T17:57:52.685Z,31.95
2023-05-19T18:00:23.256Z,31.07
2023-05-19T18:02:54.117Z,31.21
2023-05-19T18:05:27.739Z,31.77
2023-05-19T18:07:58.857Z,31.03
2023-05-19T18:10:29.408Z,31.42
2023-05-19T18:12:59.751Z,31.42
2023-05-19T18:15:29.573Z,32.11
2023-05-19T18:18:00.170Z,32.43
2023-05-19T18:20:32.203Z,31.15
2023-05-19T18:23:03.793Z,31.44
2023-05-19T18:25:33.835Z,31.05
2023-05-19T18:28:03.564Z,30.21
2023-05-19T18:30:34.275Z,30.34
2023-05-19T18:33:05.032Z,30.23
2023-05-19T18:35:36.117Z,30.34
2023-05-19T18:38:06.158Z,30.96
2023-05-19T18:40:36.707Z,30.43
2023-05-19T18:43:06.821Z,29.07
2023-05-19T18:45:38.853Z,28.69
2023-05-19T18:48:09.239Z,28.85
2023-05-19T18:50:39.652Z,28.03
2023-05-19T18:53:09.645Z,27.84
2023-05-19T18:55:40.213Z,27.74
2023-05-19T18:58:10.317Z,27.50
2023-05-19T19:00:40.792Z,27.07
2023-05-19T19:03:12.778Z,26.83
2023-05-19T19:05:43.364Z,26.69
2023-05-19T19:08:13.922Z,26.69
2023-05-19T19:10:44.272Z,26.56
2023-05-19T19:13:14.636Z,26.41
2023-05-19T19:15:44.673Z,26.23
2023-05-19T19:18:15.158Z,25.94
2023-05-19T19:20:46.533Z,25.80
2023-05-19T19:23:17.551Z,25.62
2023-05-19T19:25:48.608Z,25.56
2023-05-19T19:28:18.973Z,26.41
2023-05-19T19:30:48.841Z,25.86
2023-05-19T19:33:19.244Z,25.53
2023-05-19T19:35:49.503Z,25.38
2023-05-19T19:38:19.907Z,25.80
2023-05-19T19:40:52.164Z,26.21
2023-05-19T19:43:22.552Z,26.44
2023-05-19T19:46:01.799Z,26.54
2023-05-19T19:48:32.402Z,26.37
2023-05-19T19:51:02.405Z,26.20
2023-05-19T19:53:34.759Z,25.99
2023-05-19T19:56:06.160Z,25.78
2023-05-19T19:58:36.547Z,25.47
2023-05-19T20:01:07.269Z,25.14
2023-05-19T20:03:37.871Z,24.82
2023-05-19T20:06:08.774Z,24.45
2023-05-19T20:08:39.167Z,24.04
2023-05-19T20:11:08.924Z,23.85
2023-05-19T20:13:39.280Z,23.54
2023-05-19T20:16:09.373Z,23.19
2023-05-19T20:18:40.609Z,22.67
2023-05-19T20:21:10.574Z,22.31
2023-05-19T20:23:41.779Z,22.04
2023-05-19T20:26:13.194Z,21.84
2023-05-19T20:28:44.137Z,21.69
2023-05-19T20:31:14.088Z,21.13
2023-05-19T20:33:44.509Z,20.89
2023-05-19T20:36:14.602Z,20.89
2023-05-19T20:38:44.961Z,20.64
2023-05-19T20:41:15.141Z,20.09
2023-05-19T20:43:45.628Z,19.83
2023-05-19T20:46:15.686Z,19.65
2023-05-19T20:48:46.102Z,19.42
2023-05-19T20:51:16.064Z,19.17
2023-05-19T20:53:46.617Z,18.92
2023-05-19T20:56:16.548Z,18.83
2023-05-19T20:58:47.125Z,18.73
2023-05-19T21:01:17.311Z,18.77
2023-05-19T21:03:47.794Z,18.76
2023-05-19T21:06:17.738Z,18.72
2023-05-19T21:08:48.048Z,18.66
2023-05-19T21:11:18.008Z,18.60
2023-05-19T21:13:48.378Z,18.28
2023-05-19T21:16:18.231Z,18.26
2023-05-19T21:18:48.809Z,18.14
2023-05-19T21:21:18.893Z,17.78
2023-05-19T21:23:49.553Z,17.60
2023-05-19T21:26:20.000Z,17.46
2023-05-19T21:28:50.681Z,17.36
2023-05-19T21:31:21.260Z,17.28
2023-05-19T21:33:52.176Z,17.30
2023-05-19T21:36:22.589Z,17.18
2023-05-19T21:38:53.647Z,17.34
2023-05-19T21:41:24.067Z,17.55
2023-05-19T21:43:54.657Z,17.62
2023-05-19T21:46:25.267Z,17.60
2023-05-19T21:48:56.289Z,17.56
2023-05-19T21:51:26.783Z,17.47
2023-05-19T21:53:57.900Z,17.46
2023-05-19T21:56:28.698Z,17.38
2023-05-19T21:58:59.582Z,17.53
2023-05-19T22:01:30.154Z,16.99
2023-05-19T22:04:04.136Z,17.19
2023-05-19T22:06:34.998Z,17.21
2023-05-19T22:09:08.636Z,17.24
2023-05-19T22:11:39.347Z,17.23
2023-05-19T22:14:11.840Z,17.17
2023-05-19T22:16:42.784Z,17.07
2023-05-19T22:19:14.125Z,16.68
2023-05-19T22:21:45.406Z,16.32
2023-05-19T22:24:17.543Z,16.36
2023-05-19T22:26:48.715Z,16.30
2023-05-19T22:29:20.796Z,16.53
2023-05-19T22:31:51.546Z,16.39
2023-05-19T22:34:24.001Z,16.66
2023-05-19T22:36:54.816Z,16.65
2023-05-19T22:39:25.995Z,16.68
2023-05-19T22:41:56.980Z,16.65
2023-05-19T22:44:29.351Z,16.74
2023-05-19T22:46:59.920Z,16.62
2023-05-19T22:49:32.783Z,16.09
2023-05-19T22:52:04.952Z,15.95
2023-05-19T22:54:36.201Z,16.19
2023-05-19T22:57:07.512Z,15.81
2023-05-19T22:59:41.458Z,15.91
2023-05-19T23:02:13.139Z,15.96
2023-05-19T23:04:44.683Z,15.71
2023-05-19T23:07:15.291Z,15.59
2023-05-19T23:09:46.205Z,15.60
2023-05-19T23:12:17.198Z,15.62
2023-05-19T23:14:48.977Z,15.66
2023-05-19T23:17:19.862Z,15.62
2023-05-19T23:19:51.529Z,15.61
2023-05-19T23:22:22.559Z,15.62
2023-05-19T23:24:53.649Z,15.76
2023-05-19T23:27:24.550Z,15.73
2023-05-19T23:29:55.946Z,15.32
2023-05-19T23:32:30.101Z,15.48
2023-05-19T23:35:18.429Z,15.51
2023-05-19T23:37:49.395Z,15.45
2023-05-19T23:40:22.971Z,15.49
2023-05-19T23:42:56.067Z,15.49
2023-05-19T23:45:28.458Z,15.37
2023-05-19T23:47:58.855Z,15.48
2023-05-19T23:50:29.550Z,15.48
2023-05-19T23:52:59.614Z,15.56
2023-05-19T23:55:30.127Z,15.52
2023-05-19T23:58:00.159Z,15.50
